sensor_id;sensor_type;location;lat;lon;timestamp;P1;durP1;ratioP1;P2;durP2;ratioP2
769;SDS011;368;48.698;9.116;2022-09-21T00:01:50;4.63;;;2.80;;
769;SDS011;368;48.698;9.116;2022-09-21T00:04:16;4.60;;;3.27;;
769;SDS011;368;48.698;9.116;2022-09-21T00:06:43;3.27;;;2.80;;
769;SDS011;368;48.698;9.116;2022-09-21T00:09:11;5.93;;;3.50;;
769;SDS011;368;48.698;9.116;2022-09-21T00:11:37;4.47;;;3.43;;
769;SDS011;368;48.698;9.116;2022-09-21T00:14:05;5.53;;;3.30;;
769;SDS011;368;48.698;9.116;2022-09-21T00:16:34;4.00;;;3.50;;
769;SDS011;368;48.698;9.116;2022-09-21T00:19:03;3.20;;;2.90;;
769;SDS011;368;48.698;9.116;2022-09-21T00:21:30;3.50;;;3.20;;
769;SDS011;368;48.698;9.116;2022-09-21T00:23:58;3.13;;;2.80;;
769;SDS011;368;48.698;9.116;2022-09-21T00:26:27;6.23;;;3.30;;
769;SDS011;368;48.698;9.116;2022-09-21T00:28:55;4.17;;;3.17;;
769;SDS011;368;48.698;9.116;2022-09-21T00:31:22;6.53;;;3.20;;
769;SDS011;368;48.698;9.116;2022-09-21T00:33:50;5.53;;;3.27;;
769;SDS011;368;48.698;9.116;2022-09-21T00:36:20;6.23;;;2.97;;
769;SDS011;368;48.698;9.116;2022-09-21T00:38:48;3.03;;;2.73;;
769;SDS011;368;48.698;9.116;2022-09-21T00:41:16;3.40;;;2.87;;
769;SDS011;368;48.698;9.116;2022-09-21T00:43:44;3.30;;;2.77;;
769;SDS011;368;48.698;9.116;2022-09-21T00:46:13;5.20;;;3.00;;
769;SDS011;368;48.698;9.116;2022-09-21T00:48:45;6.20;;;3.30;;
769;SDS011;368;48.698;9.116;2022-09-21T00:51:12;4.47;;;3.33;;
769;SDS011;368;48.698;9.116;2022-09-21T00:53:41;3.20;;;2.60;;
769;SDS011;368;48.698;9.116;2022-09-21T00:56:08;3.47;;;2.83;;
769;SDS011;368;48.698;9.116;2022-09-21T00:58:37;3.83;;;2.87;;
769;SDS011;368;48.698;9.116;2022-09-21T01:01:09;3.50;;;3.00;;
769;SDS011;368;48.698;9.116;2022-09-21T01:03:39;3.10;;;2.80;;
769;SDS011;368;48.698;9.116;2022-09-21T01:06:10;5.33;;;3.20;;
769;SDS011;368;48.698;9.116;2022-09-21T01:08:36;4.30;;;3.90;;
769;SDS011;368;48.698;9.116;2022-09-21T01:11:14;4.47;;;3.37;;
769;SDS011;368;48.698;9.116;2022-09-21T01:13:56;5.33;;;2.93;;
769;SDS011;368;48.698;9.116;2022-09-21T01:16:37;4.40;;;3.33;;
769;SDS011;368;48.698;9.116;2022-09-21T01:19:13;6.60;;;3.10;;
769;SDS011;368;48.698;9.116;2022-09-21T01:21:52;7.47;;;4.10;;
769;SDS011;368;48.698;9.116;2022-09-21T01:24:32;6.30;;;4.83;;
769;SDS011;368;48.698;9.116;2022-09-21T01:30:14;4.80;;;4.10;;
769;SDS011;368;48.698;9.116;2022-09-21T01:32:45;4.13;;;3.73;;
769;SDS011;368;48.698;9.116;2022-09-21T01:35:17;4.57;;;4.00;;
769;SDS011;368;48.698;9.116;2022-09-21T01:37:50;3.87;;;3.47;;
769;SDS011;368;48.698;9.116;2022-09-21T01:40:22;6.50;;;3.50;;
769;SDS011;368;48.698;9.116;2022-09-21T01:42:55;2.93;;;2.63;;
769;SDS011;368;48.698;9.116;2022-09-21T01:45:26;4.23;;;3.43;;
769;SDS011;368;48.698;9.116;2022-09-21T01:47:58;5.90;;;3.67;;
769;SDS011;368;48.698;9.116;2022-09-21T01:50:28;4.27;;;3.90;;
769;SDS011;368;48.698;9.116;2022-09-21T01:53:00;8.93;;;8.17;;
769;SDS011;368;48.698;9.116;2022-09-21T01:55:32;6.57;;;5.07;;
769;SDS011;368;48.698;9.116;2022-09-21T01:58:05;4.33;;;3.83;;
769;SDS011;368;48.698;9.116;2022-09-21T02:00:38;5.80;;;3.37;;
769;SDS011;368;48.698;9.116;2022-09-21T02:03:11;5.63;;;3.60;;
769;SDS011;368;48.698;9.116;2022-09-21T02:05:41;3.10;;;2.83;;
769;SDS011;368;48.698;9.116;2022-09-21T02:08:09;4.30;;;3.23;;
769;SDS011;368;48.698;9.116;2022-09-21T02:10:38;5.30;;;3.30;;
769;SDS011;368;48.698;9.116;2022-09-21T02:13:10;3.10;;;2.13;;
769;SDS011;368;48.698;9.116;2022-09-21T02:15:46;2.77;;;2.53;;
769;SDS011;368;48.698;9.116;2022-09-21T02:18:26;3.40;;;3.10;;
769;SDS011;368;48.698;9.116;2022-09-21T02:21:06;6.77;;;3.33;;
769;SDS011;368;48.698;9.116;2022-09-21T02:23:40;5.37;;;3.77;;
769;SDS011;368;48.698;9.116;2022-09-21T02:26:14;2.93;;;2.70;;
769;SDS011;368;48.698;9.116;2022-09-21T02:28:46;5.83;;;3.40;;
769;SDS011;368;48.698;9.116;2022-09-21T02:31:19;3.73;;;3.30;;
769;SDS011;368;48.698;9.116;2022-09-21T02:33:52;3.93;;;2.77;;
769;SDS011;368;48.698;9.116;2022-09-21T02:36:27;4.70;;;3.90;;
769;SDS011;368;48.698;9.116;2022-09-21T02:39:01;5.03;;;3.40;;
769;SDS011;368;48.698;9.116;2022-09-21T02:41:33;3.70;;;3.40;;
769;SDS011;368;48.698;9.116;2022-09-21T02:44:05;6.93;;;3.20;;
769;SDS011;368;48.698;9.116;2022-09-21T02:46:39;5.97;;;3.50;;
769;SDS011;368;48.698;9.116;2022-09-21T02:49:11;3.97;;;3.57;;
769;SDS011;368;48.698;9.116;2022-09-21T02:51:43;7.43;;;3.40;;
769;SDS011;368;48.698;9.116;2022-09-21T02:54:14;5.40;;;3.70;;
769;SDS011;368;48.698;9.116;2022-09-21T02:56:43;5.10;;;3.43;;
769;SDS011;368;48.698;9.116;2022-09-21T02:59:13;3.73;;;3.30;;
769;SDS011;368;48.698;9.116;2022-09-21T03:01:41;4.10;;;3.40;;
769;SDS011;368;48.698;9.116;2022-09-21T03:04:08;4.33;;;3.80;;
769;SDS011;368;48.698;9.116;2022-09-21T03:06:36;5.70;;;3.33;;
769;SDS011;368;48.698;9.116;2022-09-21T03:09:02;4.17;;;3.60;;
769;SDS011;368;48.698;9.116;2022-09-21T03:11:29;5.23;;;4.10;;
769;SDS011;368;48.698;9.116;2022-09-21T03:13:56;6.37;;;4.40;;
769;SDS011;368;48.698;9.116;2022-09-21T03:16:23;8.13;;;3.77;;
769;SDS011;368;48.698;9.116;2022-09-21T03:18:51;7.10;;;3.67;;
769;SDS011;368;48.698;9.116;2022-09-21T03:21:18;4.70;;;4.30;;
769;SDS011;368;48.698;9.116;2022-09-21T03:23:46;5.27;;;4.40;;
769;SDS011;368;48.698;9.116;2022-09-21T03:26:12;4.97;;;3.80;;
769;SDS011;368;48.698;9.116;2022-09-21T03:28:39;6.60;;;3.93;;
769;SDS011;368;48.698;9.116;2022-09-21T03:31:06;7.47;;;4.70;;
769;SDS011;368;48.698;9.116;2022-09-21T03:33:32;13.80;;;5.10;;
769;SDS011;368;48.698;9.116;2022-09-21T03:36:01;5.90;;;4.70;;
769;SDS011;368;48.698;9.116;2022-09-21T03:38:28;5.43;;;4.90;;
769;SDS011;368;48.698;9.116;2022-09-21T03:40:54;7.83;;;6.80;;
769;SDS011;368;48.698;9.116;2022-09-21T03:43:22;9.20;;;8.03;;
769;SDS011;368;48.698;9.116;2022-09-21T03:45:49;8.60;;;7.70;;
769;SDS011;368;48.698;9.116;2022-09-21T03:48:15;5.00;;;3.50;;
769;SDS011;368;48.698;9.116;2022-09-21T03:50:42;3.53;;;3.20;;
769;SDS011;368;48.698;9.116;2022-09-21T03:53:10;3.57;;;3.27;;
769;SDS011;368;48.698;9.116;2022-09-21T03:55:38;5.10;;;3.43;;
769;SDS011;368;48.698;9.116;2022-09-21T03:58:05;3.50;;;3.20;;
769;SDS011;368;48.698;9.116;2022-09-21T04:00:31;2.63;;;2.43;;
769;SDS011;368;48.698;9.116;2022-09-21T04:02:59;5.07;;;3.50;;
769;SDS011;368;48.698;9.116;2022-09-21T04:05:26;4.77;;;2.67;;
769;SDS011;368;48.698;9.116;2022-09-21T04:07:53;4.40;;;3.27;;
769;SDS011;368;48.698;9.116;2022-09-21T04:10:23;6.03;;;3.10;;
769;SDS011;368;48.698;9.116;2022-09-21T04:12:57;4.07;;;2.37;;
769;SDS011;368;48.698;9.116;2022-09-21T04:15:25;9.90;;;3.90;;
769;SDS011;368;48.698;9.116;2022-09-21T04:17:53;3.40;;;3.10;;
769;SDS011;368;48.698;9.116;2022-09-21T04:20:20;6.60;;;3.47;;
769;SDS011;368;48.698;9.116;2022-09-21T04:22:47;3.53;;;3.23;;
769;SDS011;368;48.698;9.116;2022-09-21T04:25:15;3.50;;;2.63;;
769;SDS011;368;48.698;9.116;2022-09-21T04:27:43;3.90;;;3.10;;
769;SDS011;368;48.698;9.116;2022-09-21T04:30:10;3.63;;;3.13;;
769;SDS011;368;48.698;9.116;2022-09-21T04:32:39;3.47;;;3.20;;
769;SDS011;368;48.698;9.116;2022-09-21T04:35:06;4.10;;;3.10;;
769;SDS011;368;48.698;9.116;2022-09-21T04:37:33;4.03;;;3.63;;
769;SDS011;368;48.698;9.116;2022-09-21T04:40:00;3.10;;;2.80;;
769;SDS011;368;48.698;9.116;2022-09-21T04:42:27;4.33;;;3.63;;
769;SDS011;368;48.698;9.116;2022-09-21T04:44:55;5.07;;;3.47;;
769;SDS011;368;48.698;9.116;2022-09-21T04:47:22;5.33;;;4.40;;
769;SDS011;368;48.698;9.116;2022-09-21T04:49:49;4.63;;;3.90;;
769;SDS011;368;48.698;9.116;2022-09-21T04:52:17;3.60;;;3.30;;
769;SDS011;368;48.698;9.116;2022-09-21T04:54:44;3.83;;;3.50;;
769;SDS011;368;48.698;9.116;2022-09-21T04:57:11;9.40;;;3.60;;
769;SDS011;368;48.698;9.116;2022-09-21T04:59:39;6.23;;;4.87;;
769;SDS011;368;48.698;9.116;2022-09-21T05:02:07;11.47;;;6.57;;
769;SDS011;368;48.698;9.116;2022-09-21T05:04:34;10.87;;;8.43;;
769;SDS011;368;48.698;9.116;2022-09-21T05:07:01;8.87;;;7.97;;
769;SDS011;368;48.698;9.116;2022-09-21T05:09:30;10.10;;;7.70;;
769;SDS011;368;48.698;9.116;2022-09-21T05:12:14;12.57;;;9.10;;
769;SDS011;368;48.698;9.116;2022-09-21T05:14:41;10.60;;;8.47;;
769;SDS011;368;48.698;9.116;2022-09-21T05:17:10;13.63;;;10.40;;
769;SDS011;368;48.698;9.116;2022-09-21T05:19:37;5.40;;;4.73;;
769;SDS011;368;48.698;9.116;2022-09-21T05:22:04;5.33;;;4.83;;
769;SDS011;368;48.698;9.116;2022-09-21T05:24:31;5.20;;;4.37;;
769;SDS011;368;48.698;9.116;2022-09-21T05:26:57;5.53;;;4.73;;
769;SDS011;368;48.698;9.116;2022-09-21T05:29:25;6.23;;;5.63;;
769;SDS011;368;48.698;9.116;2022-09-21T05:31:53;9.50;;;4.87;;
769;SDS011;368;48.698;9.116;2022-09-21T05:34:35;6.07;;;5.47;;
769;SDS011;368;48.698;9.116;2022-09-21T05:37:11;6.37;;;5.77;;
769;SDS011;368;48.698;9.116;2022-09-21T05:39:55;6.63;;;5.77;;
769;SDS011;368;48.698;9.116;2022-09-21T05:42:22;5.87;;;5.20;;
769;SDS011;368;48.698;9.116;2022-09-21T05:44:49;8.10;;;6.30;;
769;SDS011;368;48.698;9.116;2022-09-21T05:47:20;7.37;;;6.70;;
769;SDS011;368;48.698;9.116;2022-09-21T05:49:54;8.97;;;6.70;;
769;SDS011;368;48.698;9.116;2022-09-21T05:52:27;7.33;;;6.40;;
769;SDS011;368;48.698;9.116;2022-09-21T05:55:05;6.80;;;6.20;;
769;SDS011;368;48.698;9.116;2022-09-21T05:57:41;8.27;;;7.57;;
769;SDS011;368;48.698;9.116;2022-09-21T06:00:15;7.20;;;6.60;;
769;SDS011;368;48.698;9.116;2022-09-21T06:02:49;7.80;;;7.00;;
769;SDS011;368;48.698;9.116;2022-09-21T06:05:26;9.80;;;8.30;;
769;SDS011;368;48.698;9.116;2022-09-21T06:07:54;12.97;;;8.10;;
769;SDS011;368;48.698;9.116;2022-09-21T06:10:20;8.20;;;6.60;;
769;SDS011;368;48.698;9.116;2022-09-21T06:12:49;7.17;;;6.47;;
769;SDS011;368;48.698;9.116;2022-09-21T06:15:15;8.77;;;7.97;;
769;SDS011;368;48.698;9.116;2022-09-21T06:17:42;9.47;;;8.67;;
769;SDS011;368;48.698;9.116;2022-09-21T06:20:09;7.80;;;7.10;;
769;SDS011;368;48.698;9.116;2022-09-21T06:22:37;8.00;;;6.30;;
769;SDS011;368;48.698;9.116;2022-09-21T06:25:04;8.03;;;6.77;;
769;SDS011;368;48.698;9.116;2022-09-21T06:27:32;8.17;;;7.03;;
769;SDS011;368;48.698;9.116;2022-09-21T06:29:58;9.83;;;6.77;;
769;SDS011;368;48.698;9.116;2022-09-21T06:32:26;8.57;;;7.67;;
769;SDS011;368;48.698;9.116;2022-09-21T06:34:53;7.70;;;5.93;;
769;SDS011;368;48.698;9.116;2022-09-21T06:37:19;8.83;;;6.83;;
769;SDS011;368;48.698;9.116;2022-09-21T06:39:47;8.73;;;7.60;;
769;SDS011;368;48.698;9.116;2022-09-21T06:42:14;9.40;;;7.93;;
769;SDS011;368;48.698;9.116;2022-09-21T06:44:43;9.10;;;8.00;;
769;SDS011;368;48.698;9.116;2022-09-21T06:47:10;9.27;;;7.60;;
769;SDS011;368;48.698;9.116;2022-09-21T06:49:37;9.13;;;8.20;;
769;SDS011;368;48.698;9.116;2022-09-21T06:52:03;9.50;;;8.60;;
769;SDS011;368;48.698;9.116;2022-09-21T06:54:30;11.83;;;10.10;;
769;SDS011;368;48.698;9.116;2022-09-21T06:56:58;14.87;;;11.07;;
769;SDS011;368;48.698;9.116;2022-09-21T06:59:25;13.80;;;9.90;;
769;SDS011;368;48.698;9.116;2022-09-21T07:01:54;13.30;;;9.73;;
769;SDS011;368;48.698;9.116;2022-09-21T07:04:22;9.70;;;8.80;;
769;SDS011;368;48.698;9.116;2022-09-21T07:06:49;14.33;;;9.03;;
769;SDS011;368;48.698;9.116;2022-09-21T07:09:16;11.17;;;8.53;;
769;SDS011;368;48.698;9.116;2022-09-21T07:11:43;13.63;;;9.57;;
769;SDS011;368;48.698;9.116;2022-09-21T07:14:11;12.10;;;9.87;;
769;SDS011;368;48.698;9.116;2022-09-21T07:16:39;11.00;;;8.37;;
769;SDS011;368;48.698;9.116;2022-09-21T07:19:07;11.07;;;8.30;;
769;SDS011;368;48.698;9.116;2022-09-21T07:21:34;11.77;;;8.73;;
769;SDS011;368;48.698;9.116;2022-09-21T07:24:00;10.33;;;7.30;;
769;SDS011;368;48.698;9.116;2022-09-21T07:26:27;12.97;;;9.10;;
769;SDS011;368;48.698;9.116;2022-09-21T07:28:54;12.23;;;8.80;;
769;SDS011;368;48.698;9.116;2022-09-21T07:31:25;10.37;;;7.93;;
769;SDS011;368;48.698;9.116;2022-09-21T07:33:54;12.50;;;7.83;;
769;SDS011;368;48.698;9.116;2022-09-21T07:36:23;7.00;;;6.20;;
769;SDS011;368;48.698;9.116;2022-09-21T07:38:49;6.77;;;5.77;;
769;SDS011;368;48.698;9.116;2022-09-21T07:41:17;6.13;;;5.50;;
769;SDS011;368;48.698;9.116;2022-09-21T07:43:46;8.30;;;6.27;;
769;SDS011;368;48.698;9.116;2022-09-21T07:46:13;7.43;;;5.10;;
769;SDS011;368;48.698;9.116;2022-09-21T07:48:42;6.43;;;5.40;;
769;SDS011;368;48.698;9.116;2022-09-21T07:51:09;6.43;;;5.17;;
769;SDS011;368;48.698;9.116;2022-09-21T07:53:37;5.27;;;4.53;;
769;SDS011;368;48.698;9.116;2022-09-21T07:56:06;6.30;;;5.70;;
769;SDS011;368;48.698;9.116;2022-09-21T07:58:34;5.83;;;4.80;;
769;SDS011;368;48.698;9.116;2022-09-21T08:01:19;8.23;;;5.03;;
769;SDS011;368;48.698;9.116;2022-09-21T08:03:48;4.07;;;3.70;;
769;SDS011;368;48.698;9.116;2022-09-21T08:06:16;4.63;;;3.70;;
769;SDS011;368;48.698;9.116;2022-09-21T08:08:43;4.47;;;4.03;;
769;SDS011;368;48.698;9.116;2022-09-21T08:11:12;3.97;;;3.40;;
769;SDS011;368;48.698;9.116;2022-09-21T08:13:41;8.40;;;4.60;;
769;SDS011;368;48.698;9.116;2022-09-21T08:16:08;3.87;;;3.10;;
769;SDS011;368;48.698;9.116;2022-09-21T08:18:35;5.73;;;3.43;;
769;SDS011;368;48.698;9.116;2022-09-21T08:21:04;4.33;;;3.67;;
769;SDS011;368;48.698;9.116;2022-09-21T08:23:32;3.90;;;2.83;;
769;SDS011;368;48.698;9.116;2022-09-21T08:25:59;5.90;;;2.90;;
769;SDS011;368;48.698;9.116;2022-09-21T08:28:26;2.60;;;2.40;;
769;SDS011;368;48.698;9.116;2022-09-21T08:30:57;5.17;;;2.90;;
769;SDS011;368;48.698;9.116;2022-09-21T08:33:24;3.33;;;2.57;;
769;SDS011;368;48.698;9.116;2022-09-21T08:35:52;6.13;;;3.20;;
769;SDS011;368;48.698;9.116;2022-09-21T08:38:20;2.93;;;2.63;;
769;SDS011;368;48.698;9.116;2022-09-21T08:40:47;3.73;;;2.37;;
769;SDS011;368;48.698;9.116;2022-09-21T08:43:15;3.30;;;2.50;;
769;SDS011;368;48.698;9.116;2022-09-21T08:45:47;3.17;;;2.40;;
769;SDS011;368;48.698;9.116;2022-09-21T08:48:14;4.53;;;2.67;;
769;SDS011;368;48.698;9.116;2022-09-21T08:50:47;2.60;;;2.23;;
769;SDS011;368;48.698;9.116;2022-09-21T08:53:17;2.53;;;1.80;;
769;SDS011;368;48.698;9.116;2022-09-21T08:55:47;3.43;;;1.97;;
769;SDS011;368;48.698;9.116;2022-09-21T08:58:18;6.23;;;2.23;;
769;SDS011;368;48.698;9.116;2022-09-21T09:00:47;3.03;;;1.30;;
769;SDS011;368;48.698;9.116;2022-09-21T09:03:20;2.30;;;1.90;;
769;SDS011;368;48.698;9.116;2022-09-21T09:06:00;1.70;;;1.53;;
769;SDS011;368;48.698;9.116;2022-09-21T09:08:37;2.27;;;1.50;;
769;SDS011;368;48.698;9.116;2022-09-21T09:11:25;2.30;;;1.80;;
769;SDS011;368;48.698;9.116;2022-09-21T09:14:21;2.67;;;1.43;;
769;SDS011;368;48.698;9.116;2022-09-21T09:17:10;1.97;;;1.40;;
769;SDS011;368;48.698;9.116;2022-09-21T09:19:48;1.70;;;1.17;;
769;SDS011;368;48.698;9.116;2022-09-21T09:22:22;3.83;;;1.30;;
769;SDS011;368;48.698;9.116;2022-09-21T09:24:55;2.30;;;1.70;;
769;SDS011;368;48.698;9.116;2022-09-21T09:27:28;3.10;;;1.60;;
769;SDS011;368;48.698;9.116;2022-09-21T09:29:59;2.00;;;1.50;;
769;SDS011;368;48.698;9.116;2022-09-21T09:32:30;3.17;;;1.53;;
769;SDS011;368;48.698;9.116;2022-09-21T09:35:06;2.70;;;;;
769;SDS011;368;48.698;9.116;2022-09-21T09:37:41;2.47;;;1.37;;
769;SDS011;368;48.698;9.116;2022-09-21T09:40:10;2.27;;;1.50;;
769;SDS011;368;48.698;9.116;2022-09-21T09:42:43;6.33;;;1.40;;
769;SDS011;368;48.698;9.116;2022-09-21T09:45:28;1.50;;;0.90;;
769;SDS011;368;48.698;9.116;2022-09-21T09:48:15;2.00;;;1.10;;
769;SDS011;368;48.698;9.116;2022-09-21T09:50:50;3.00;;;1.60;;
769;SDS011;368;48.698;9.116;2022-09-21T09:53:19;2.80;;;0.77;;
769;SDS011;368;48.698;9.116;2022-09-21T09:55:49;1.47;;;1.10;;
769;SDS011;368;48.698;9.116;2022-09-21T09:58:19;1.73;;;1.10;;
769;SDS011;368;48.698;9.116;2022-09-21T10:00:49;1.40;;;1.10;;
769;SDS011;368;48.698;9.116;2022-09-21T10:03:18;0.93;;;0.73;;
769;SDS011;368;48.698;9.116;2022-09-21T10:05:47;2.60;;;0.90;;
769;SDS011;368;48.698;9.116;2022-09-21T10:08:27;1.90;;;1.00;;
769;SDS011;368;48.698;9.116;2022-09-21T10:10:56;1.70;;;1.30;;
769;SDS011;368;48.698;9.116;2022-09-21T10:13:26;4.77;;;1.13;;
769;SDS011;368;48.698;9.116;2022-09-21T10:15:56;3.37;;;1.73;;
769;SDS011;368;48.698;9.116;2022-09-21T10:18:25;1.60;;;0.97;;
769;SDS011;368;48.698;9.116;2022-09-21T10:21:00;1.63;;;1.10;;
769;SDS011;368;48.698;9.116;2022-09-21T10:23:29;1.43;;;1.10;;
769;SDS011;368;48.698;9.116;2022-09-21T10:26:04;2.07;;;1.20;;
769;SDS011;368;48.698;9.116;2022-09-21T10:28:34;2.43;;;1.63;;
769;SDS011;368;48.698;9.116;2022-09-21T10:31:15;1.60;;;1.07;;
769;SDS011;368;48.698;9.116;2022-09-21T10:33:46;1.70;;;1.07;;
769;SDS011;368;48.698;9.116;2022-09-21T10:36:24;2.37;;;1.13;;
769;SDS011;368;48.698;9.116;2022-09-21T10:38:52;1.60;;;1.07;;
769;SDS011;368;48.698;9.116;2022-09-21T10:41:19;2.40;;;1.20;;
769;SDS011;368;48.698;9.116;2022-09-21T10:43:47;3.93;;;1.30;;
769;SDS011;368;48.698;9.116;2022-09-21T10:46:15;1.47;;;1.10;;
769;SDS011;368;48.698;9.116;2022-09-21T10:48:43;1.93;;;1.00;;
769;SDS011;368;48.698;9.116;2022-09-21T10:51:19;1.50;;;0.93;;
769;SDS011;368;48.698;9.116;2022-09-21T10:53:53;3.07;;;0.80;;
769;SDS011;368;48.698;9.116;2022-09-21T10:56:20;1.60;;;1.20;;
769;SDS011;368;48.698;9.116;2022-09-21T11:01:41;1.50;;;1.10;;
769;SDS011;368;48.698;9.116;2022-09-21T11:04:10;3.60;;;1.30;;
769;SDS011;368;48.698;9.116;2022-09-21T11:06:43;2.73;;;1.57;;
769;SDS011;368;48.698;9.116;2022-09-21T11:09:15;2.20;;;1.10;;
769;SDS011;368;48.698;9.116;2022-09-21T11:11:48;4.70;;;1.57;;
769;SDS011;368;48.698;9.116;2022-09-21T11:14:28;1.80;;;1.27;;
769;SDS011;368;48.698;9.116;2022-09-21T11:17:04;2.10;;;1.07;;
769;SDS011;368;48.698;9.116;2022-09-21T11:19:37;2.00;;;1.40;;
769;SDS011;368;48.698;9.116;2022-09-21T11:22:10;2.80;;;1.37;;
769;SDS011;368;48.698;9.116;2022-09-21T11:24:44;1.73;;;1.60;;
769;SDS011;368;48.698;9.116;2022-09-21T11:27:15;2.30;;;1.00;;
769;SDS011;368;48.698;9.116;2022-09-21T11:29:51;2.20;;;1.33;;
769;SDS011;368;48.698;9.116;2022-09-21T11:32:30;1.93;;;1.10;;
769;SDS011;368;48.698;9.116;2022-09-21T11:35:15;2.10;;;0.93;;
769;SDS011;368;48.698;9.116;2022-09-21T11:37:55;1.63;;;1.07;;
769;SDS011;368;48.698;9.116;2022-09-21T11:40:31;2.90;;;1.30;;
769;SDS011;368;48.698;9.116;2022-09-21T11:43:24;2.57;;;1.47;;
769;SDS011;368;48.698;9.116;2022-09-21T11:46:05;2.23;;;1.20;;
769;SDS011;368;48.698;9.116;2022-09-21T11:48:53;0.80;;;0.80;;
769;SDS011;368;48.698;9.116;2022-09-21T11:51:33;1.53;;;1.20;;
769;SDS011;368;48.698;9.116;2022-09-21T11:57:17;1.53;;;0.80;;
769;SDS011;368;48.698;9.116;2022-09-21T12:06:03;2.40;;;0.60;;
769;SDS011;368;48.698;9.116;2022-09-21T12:08:42;1.00;;;0.90;;
769;SDS011;368;48.698;9.116;2022-09-21T12:11:20;2.10;;;0.90;;
769;SDS011;368;48.698;9.116;2022-09-21T12:13:56;2.37;;;0.97;;
769;SDS011;368;48.698;9.116;2022-09-21T12:16:31;2.17;;;1.00;;
769;SDS011;368;48.698;9.116;2022-09-21T12:19:07;0.77;;;0.70;;
769;SDS011;368;48.698;9.116;2022-09-21T12:21:41;1.67;;;0.80;;
769;SDS011;368;48.698;9.116;2022-09-21T12:24:13;1.43;;;0.77;;
769;SDS011;368;48.698;9.116;2022-09-21T12:26:46;1.37;;;0.80;;
769;SDS011;368;48.698;9.116;2022-09-21T12:29:16;1.13;;;0.70;;
769;SDS011;368;48.698;9.116;2022-09-21T12:31:53;2.07;;;0.60;;
769;SDS011;368;48.698;9.116;2022-09-21T12:34:28;1.30;;;0.90;;
769;SDS011;368;48.698;9.116;2022-09-21T12:37:03;2.20;;;1.07;;
769;SDS011;368;48.698;9.116;2022-09-21T12:39:36;1.40;;;0.80;;
769;SDS011;368;48.698;9.116;2022-09-21T12:42:10;9.00;;;1.30;;
769;SDS011;368;48.698;9.116;2022-09-21T12:44:54;1.87;;;0.60;;
769;SDS011;368;48.698;9.116;2022-09-21T12:47:27;2.40;;;0.80;;
769;SDS011;368;48.698;9.116;2022-09-21T12:50:02;1.00;;;0.73;;
769;SDS011;368;48.698;9.116;2022-09-21T12:52:39;1.17;;;0.70;;
769;SDS011;368;48.698;9.116;2022-09-21T12:55:12;1.30;;;0.80;;
769;SDS011;368;48.698;9.116;2022-09-21T12:57:54;1.30;;;0.80;;
769;SDS011;368;48.698;9.116;2022-09-21T13:00:27;1.07;;;0.80;;
769;SDS011;368;48.698;9.116;2022-09-21T13:02:59;1.27;;;0.50;;
769;SDS011;368;48.698;9.116;2022-09-21T13:05:34;1.33;;;0.80;;
769;SDS011;368;48.698;9.116;2022-09-21T13:08:07;0.93;;;0.70;;
769;SDS011;368;48.698;9.116;2022-09-21T13:10:39;1.50;;;0.90;;
769;SDS011;368;48.698;9.116;2022-09-21T13:13:15;1.73;;;0.60;;
769;SDS011;368;48.698;9.116;2022-09-21T13:15:47;1.07;;;0.60;;
769;SDS011;368;48.698;9.116;2022-09-21T13:18:16;2.07;;;1.00;;
769;SDS011;368;48.698;9.116;2022-09-21T13:20:46;1.30;;;0.60;;
769;SDS011;368;48.698;9.116;2022-09-21T13:23:19;1.53;;;0.60;;
769;SDS011;368;48.698;9.116;2022-09-21T13:25:49;1.43;;;0.80;;
769;SDS011;368;48.698;9.116;2022-09-21T13:28:38;0.87;;;0.80;;
769;SDS011;368;48.698;9.116;2022-09-21T13:31:29;1.63;;;0.80;;
769;SDS011;368;48.698;9.116;2022-09-21T13:34:22;0.87;;;0.50;;
769;SDS011;368;48.698;9.116;2022-09-21T13:39:53;1.10;;;0.70;;
769;SDS011;368;48.698;9.116;2022-09-21T13:42:43;0.70;;;0.50;;
769;SDS011;368;48.698;9.116;2022-09-21T13:48:12;2.00;;;0.80;;
769;SDS011;368;48.698;9.116;2022-09-21T13:50:51;2.20;;;0.40;;
769;SDS011;368;48.698;9.116;2022-09-21T13:53:24;1.03;;;0.80;;
769;SDS011;368;48.698;9.116;2022-09-21T13:56:00;0.87;;;0.63;;
769;SDS011;368;48.698;9.116;2022-09-21T13:58:33;1.43;;;0.70;;
769;SDS011;368;48.698;9.116;2022-09-21T14:01:05;1.20;;;0.60;;
769;SDS011;368;48.698;9.116;2022-09-21T14:03:38;0.83;;;0.70;;
769;SDS011;368;48.698;9.116;2022-09-21T14:06:11;1.37;;;0.60;;
769;SDS011;368;48.698;9.116;2022-09-21T14:08:45;1.20;;;0.70;;
769;SDS011;368;48.698;9.116;2022-09-21T14:11:20;2.63;;;0.60;;
769;SDS011;368;48.698;9.116;2022-09-21T14:14:07;1.20;;;0.70;;
769;SDS011;368;48.698;9.116;2022-09-21T14:16:52;1.03;;;0.70;;
769;SDS011;368;48.698;9.116;2022-09-21T14:22:34;1.13;;;0.60;;
769;SDS011;368;48.698;9.116;2022-09-21T14:25:22;0.70;;;0.60;;
769;SDS011;368;48.698;9.116;2022-09-21T14:28:14;1.13;;;0.50;;
769;SDS011;368;48.698;9.116;2022-09-21T14:30:47;1.73;;;0.80;;
769;SDS011;368;48.698;9.116;2022-09-21T14:33:21;3.20;;;1.00;;
769;SDS011;368;48.698;9.116;2022-09-21T14:35:53;0.97;;;0.53;;
769;SDS011;368;48.698;9.116;2022-09-21T14:38:22;1.17;;;0.90;;
769;SDS011;368;48.698;9.116;2022-09-21T14:40:51;1.33;;;0.80;;
769;SDS011;368;48.698;9.116;2022-09-21T14:43:23;0.80;;;0.60;;
769;SDS011;368;48.698;9.116;2022-09-21T14:46:00;0.90;;;0.70;;
769;SDS011;368;48.698;9.116;2022-09-21T14:48:37;1.13;;;0.60;;
769;SDS011;368;48.698;9.116;2022-09-21T14:51:16;1.00;;;0.67;;
769;SDS011;368;48.698;9.116;2022-09-21T14:53:54;0.90;;;0.73;;
769;SDS011;368;48.698;9.116;2022-09-21T14:56:35;1.00;;;0.80;;
769;SDS011;368;48.698;9.116;2022-09-21T15:02:16;1.33;;;0.80;;
769;SDS011;368;48.698;9.116;2022-09-21T15:04:51;1.30;;;0.83;;
769;SDS011;368;48.698;9.116;2022-09-21T15:07:27;2.10;;;0.80;;
769;SDS011;368;48.698;9.116;2022-09-21T15:10:21;0.90;;;0.60;;
769;SDS011;368;48.698;9.116;2022-09-21T15:13:10;1.40;;;0.90;;
769;SDS011;368;48.698;9.116;2022-09-21T15:15:46;1.00;;;0.90;;
769;SDS011;368;48.698;9.116;2022-09-21T15:18:31;3.33;;;1.00;;
769;SDS011;368;48.698;9.116;2022-09-21T15:21:01;0.73;;;0.60;;
769;SDS011;368;48.698;9.116;2022-09-21T15:23:30;1.20;;;0.67;;
769;SDS011;368;48.698;9.116;2022-09-21T15:25:58;1.83;;;0.87;;
769;SDS011;368;48.698;9.116;2022-09-21T15:28:29;3.37;;;0.90;;
769;SDS011;368;48.698;9.116;2022-09-21T15:31:03;1.40;;;0.90;;
769;SDS011;368;48.698;9.116;2022-09-21T15:33:35;1.00;;;0.87;;
769;SDS011;368;48.698;9.116;2022-09-21T15:36:03;1.37;;;0.90;;
769;SDS011;368;48.698;9.116;2022-09-21T15:38:32;1.03;;;0.70;;
769;SDS011;368;48.698;9.116;2022-09-21T15:41:00;0.90;;;0.60;;
769;SDS011;368;48.698;9.116;2022-09-21T15:43:29;2.20;;;0.70;;
769;SDS011;368;48.698;9.116;2022-09-21T15:45:59;1.13;;;0.80;;
769;SDS011;368;48.698;9.116;2022-09-21T15:48:29;1.87;;;0.80;;
769;SDS011;368;48.698;9.116;2022-09-21T15:51:00;0.90;;;0.80;;
769;SDS011;368;48.698;9.116;2022-09-21T15:53:32;2.10;;;0.97;;
769;SDS011;368;48.698;9.116;2022-09-21T15:56:02;1.57;;;0.90;;
769;SDS011;368;48.698;9.116;2022-09-21T15:58:31;1.70;;;1.17;;
769;SDS011;368;48.698;9.116;2022-09-21T16:01:01;0.90;;;0.77;;
769;SDS011;368;48.698;9.116;2022-09-21T16:03:30;1.23;;;1.00;;
769;SDS011;368;48.698;9.116;2022-09-21T16:05:57;0.70;;;0.70;;
769;SDS011;368;48.698;9.116;2022-09-21T16:08:28;1.90;;;0.80;;
769;SDS011;368;48.698;9.116;2022-09-21T16:11:10;1.40;;;1.30;;
769;SDS011;368;48.698;9.116;2022-09-21T16:13:40;1.80;;;0.83;;
769;SDS011;368;48.698;9.116;2022-09-21T16:16:24;1.53;;;0.80;;
769;SDS011;368;48.698;9.116;2022-09-21T16:18:53;1.47;;;0.80;;
769;SDS011;368;48.698;9.116;2022-09-21T16:21:21;0.93;;;0.50;;
769;SDS011;368;48.698;9.116;2022-09-21T16:23:52;0.80;;;0.70;;
769;SDS011;368;48.698;9.116;2022-09-21T16:26:22;0.80;;;0.70;;
769;SDS011;368;48.698;9.116;2022-09-21T16:28:56;2.97;;;1.53;;
769;SDS011;368;48.698;9.116;2022-09-21T16:31:25;2.20;;;0.90;;
769;SDS011;368;48.698;9.116;2022-09-21T16:33:58;0.80;;;0.70;;
769;SDS011;368;48.698;9.116;2022-09-21T16:36:34;1.10;;;0.90;;
769;SDS011;368;48.698;9.116;2022-09-21T16:39:10;1.70;;;0.90;;
769;SDS011;368;48.698;9.116;2022-09-21T16:41:39;2.30;;;0.80;;